sensor_id;sensor_type;location;lat;lon;timestamp;temperature;humidity
26595;DHT22;14238;49.496;8.154;2023-06-22T00:00:55;21.20;99.90
26595;DHT22;14238;49.496;8.154;2023-06-22T00:03:22;21.30;99.90
26595;DHT22;14238;49.496;8.154;2023-06-22T00:05:50;21.40;99.90
26595;DHT22;14238;49.496;8.154;2023-06-22T00:08:16;21.70;99.90
26595;DHT22;14238;49.496;8.154;2023-06-22T00:10:43;21.80;99.90
26595;DHT22;14238;49.496;8.154;2023-06-22T00:13:09;22.00;99.90
26595;DHT22;14238;49.496;8.154;2023-06-22T00:15:36;22.00;99.90
26595;DHT22;14238;49.496;8.154;2023-06-22T00:18:03;21.90;99.90
26595;DHT22;14238;49.496;8.154;2023-06-22T00:20:28;21.80;99.90
26595;DHT22;14238;49.496;8.154;2023-06-22T00:22:56;21.70;99.90
26595;DHT22;14238;49.496;8.154;2023-06-22T00:25:22;21.70;99.90
26595;DHT22;14238;49.496;8.154;2023-06-22T00:27:48;21.60;99.90
26595;DHT22;14238;49.496;8.154;2023-06-22T00:30:15;21.60;99.90
26595;DHT22;14238;49.496;8.154;2023-06-22T00:32:41;21.90;99.90
26595;DHT22;14238;49.496;8.154;2023-06-22T00:35:07;22.20;99.90
26595;DHT22;14238;49.496;8.154;2023-06-22T00:37:33;22.40;99.90
26595;DHT22;14238;49.496;8.154;2023-06-22T00:39:58;22.30;99.90
26595;DHT22;14238;49.496;8.154;2023-06-22T00:42:24;22.30;99.90
26595;DHT22;14238;49.496;8.154;2023-06-22T00:44:50;22.20;99.90
26595;DHT22;14238;49.496;8.154;2023-06-22T00:47:17;21.90;99.90
26595;DHT22;14238;49.496;8.154;2023-06-22T00:49:43;21.90;99.90
26595;DHT22;14238;49.496;8.154;2023-06-22T00:52:09;21.80;99.90
26595;DHT22;14238;49.496;8.154;2023-06-22T00:54:40;21.60;99.90
26595;DHT22;14238;49.496;8.154;2023-06-22T00:57:13;21.30;99.90
26595;DHT22;14238;49.496;8.154;2023-06-22T00:59:42;21.10;99.90
26595;DHT22;14238;49.496;8.154;2023-06-22T01:02:08;21.00;99.90
26595;DHT22;14238;49.496;8.154;2023-06-22T01:04:35;20.90;99.90
26595;DHT22;14238;49.496;8.154;2023-06-22T01:12:26;20.90;99.90
26595;DHT22;14238;49.496;8.154;2023-06-22T01:15:04;20.90;99.90
26595;DHT22;14238;49.496;8.154;2023-06-22T01:17:34;20.80;99.90
26595;DHT22;14238;49.496;8.154;2023-06-22T01:20:00;20.80;99.90
26595;DHT22;14238;49.496;8.154;2023-06-22T01:22:31;20.80;99.90
26595;DHT22;14238;49.496;8.154;2023-06-22T01:25:15;20.90;99.90
26595;DHT22;14238;49.496;8.154;2023-06-22T01:27:53;20.80;99.90
26595;DHT22;14238;49.496;8.154;2023-06-22T01:30:22;20.70;99.90
26595;DHT22;14238;49.496;8.154;2023-06-22T01:32:51;20.60;99.90
26595;DHT22;14238;49.496;8.154;2023-06-22T01:35:18;20.50;99.90
26595;DHT22;14238;49.496;8.154;2023-06-22T01:37:44;20.40;99.90
26595;DHT22;14238;49.496;8.154;2023-06-22T01:40:11;20.40;99.90
26595;DHT22;14238;49.496;8.154;2023-06-22T01:42:37;20.30;99.90
26595;DHT22;14238;49.496;8.154;2023-06-22T01:45:05;20.30;99.90
26595;DHT22;14238;49.496;8.154;2023-06-22T01:47:31;20.40;99.90
26595;DHT22;14238;49.496;8.154;2023-06-22T01:49:57;20.40;99.90
26595;DHT22;14238;49.496;8.154;2023-06-22T01:52:24;20.40;99.90
26595;DHT22;14238;49.496;8.154;2023-06-22T01:54:49;20.40;99.90
26595;DHT22;14238;49.496;8.154;2023-06-22T01:57:15;20.30;99.90
26595;DHT22;14238;49.496;8.154;2023-06-22T02:00:00;20.30;99.90
26595;DHT22;14238;49.496;8.154;2023-06-22T02:02:30;20.30;99.90
26595;DHT22;14238;49.496;8.154;2023-06-22T02:04:59;20.40;99.90
26595;DHT22;14238;49.496;8.154;2023-06-22T02:07:31;20.60;99.90
26595;DHT22;14238;49.496;8.154;2023-06-22T02:09:59;20.40;99.90
26595;DHT22;14238;49.496;8.154;2023-06-22T02:12:26;20.30;99.90
26595;DHT22;14238;49.496;8.154;2023-06-22T02:14:53;20.30;99.90
26595;DHT22;14238;49.496;8.154;2023-06-22T02:17:19;20.40;99.90
26595;DHT22;14238;49.496;8.154;2023-06-22T02:19:45;20.30;99.90
26595;DHT22;14238;49.496;8.154;2023-06-22T02:22:11;20.20;99.90
26595;DHT22;14238;49.496;8.154;2023-06-22T02:24:39;20.20;99.90
26595;DHT22;14238;49.496;8.154;2023-06-22T02:27:04;20.20;99.90
26595;DHT22;14238;49.496;8.154;2023-06-22T02:29:32;20.10;99.90
26595;DHT22;14238;49.496;8.154;2023-06-22T02:31:58;20.10;99.90
26595;DHT22;14238;49.496;8.154;2023-06-22T02:34:24;20.10;99.90
26595;DHT22;14238;49.496;8.154;2023-06-22T02:36:50;20.00;99.90
26595;DHT22;14238;49.496;8.154;2023-06-22T02:39:24;19.80;99.90
26595;DHT22;14238;49.496;8.154;2023-06-22T02:41:50;19.90;99.90
26595;DHT22;14238;49.496;8.154;2023-06-22T02:44:17;19.80;99.90
26595;DHT22;14238;49.496;8.154;2023-06-22T02:46:43;19.80;99.90
26595;DHT22;14238;49.496;8.154;2023-06-22T02:49:10;19.70;99.90
26595;DHT22;14238;49.496;8.154;2023-06-22T02:51:37;19.60;99.90
26595;DHT22;14238;49.496;8.154;2023-06-22T02:54:05;19.60;99.90
26595;DHT22;14238;49.496;8.154;2023-06-22T02:56:30;19.80;99.90
26595;DHT22;14238;49.496;8.154;2023-06-22T02:58:56;19.70;99.90
26595;DHT22;14238;49.496;8.154;2023-06-22T03:01:26;19.70;99.90
26595;DHT22;14238;49.496;8.154;2023-06-22T03:03:53;19.70;99.90
26595;DHT22;14238;49.496;8.154;2023-06-22T03:06:20;19.40;99.90
26595;DHT22;14238;49.496;8.154;2023-06-22T03:08:49;19.30;99.90
26595;DHT22;14238;49.496;8.154;2023-06-22T03:11:15;19.50;99.90
26595;DHT22;14238;49.496;8.154;2023-06-22T03:13:40;19.70;99.90
26595;DHT22;14238;49.496;8.154;2023-06-22T03:16:06;19.50;99.90
26595;DHT22;14238;49.496;8.154;2023-06-22T03:18:32;19.40;99.90
26595;DHT22;14238;49.496;8.154;2023-06-22T03:20:57;19.50;99.90
26595;DHT22;14238;49.496;8.154;2023-06-22T03:23:23;19.50;99.90
26595;DHT22;14238;49.496;8.154;2023-06-22T03:25:48;19.50;99.90
26595;DHT22;14238;49.496;8.154;2023-06-22T03:28:14;19.30;99.90
26595;DHT22;14238;49.496;8.154;2023-06-22T03:30:39;19.40;99.90
26595;DHT22;14238;49.496;8.154;2023-06-22T03:33:05;19.30;99.90
26595;DHT22;14238;49.496;8.154;2023-06-22T03:35:30;19.30;99.90
26595;DHT22;14238;49.496;8.154;2023-06-22T03:37:56;19.40;99.90
26595;DHT22;14238;49.496;8.154;2023-06-22T03:40:21;19.30;99.90
26595;DHT22;14238;49.496;8.154;2023-06-22T03:42:47;19.50;99.90
26595;DHT22;14238;49.496;8.154;2023-06-22T03:45:12;19.40;99.90
26595;DHT22;14238;49.496;8.154;2023-06-22T03:47:38;19.40;99.90
26595;DHT22;14238;49.496;8.154;2023-06-22T03:50:04;19.30;99.90
26595;DHT22;14238;49.496;8.154;2023-06-22T03:52:30;19.30;99.90
26595;DHT22;14238;49.496;8.154;2023-06-22T03:54:55;19.30;99.90
26595;DHT22;14238;49.496;8.154;2023-06-22T03:57:21;19.50;99.90
26595;DHT22;14238;49.496;8.154;2023-06-22T03:59:47;19.50;99.90
26595;DHT22;14238;49.496;8.154;2023-06-22T04:02:12;19.40;99.90
26595;DHT22;14238;49.496;8.154;2023-06-22T04:04:38;19.40;99.90
26595;DHT22;14238;49.496;8.154;2023-06-22T04:07:04;19.30;99.90
26595;DHT22;14238;49.496;8.154;2023-06-22T04:09:30;19.30;99.90
26595;DHT22;14238;49.496;8.154;2023-06-22T04:11:56;19.40;99.90
26595;DHT22;14238;49.496;8.154;2023-06-22T04:14:21;19.30;99.90
26595;DHT22;14238;49.496;8.154;2023-06-22T04:16:47;19.40;99.90
26595;DHT22;14238;49.496;8.154;2023-06-22T04:19:13;19.50;99.90
26595;DHT22;14238;49.496;8.154;2023-06-22T04:21:42;19.60;99.90
26595;DHT22;14238;49.496;8.154;2023-06-22T04:24:08;19.70;99.90
26595;DHT22;14238;49.496;8.154;2023-06-22T04:26:34;19.60;99.90
26595;DHT22;14238;49.496;8.154;2023-06-22T04:29:03;19.60;99.90
26595;DHT22;14238;49.496;8.154;2023-06-22T04:31:33;19.60;99.90
26595;DHT22;14238;49.496;8.154;2023-06-22T04:34:02;19.70;99.90
26595;DHT22;14238;49.496;8.154;2023-06-22T04:36:41;19.70;99.90
26595;DHT22;14238;49.496;8.154;2023-06-22T04:39:12;19.60;99.90
26595;DHT22;14238;49.496;8.154;2023-06-22T04:41:39;19.70;99.90
26595;DHT22;14238;49.496;8.154;2023-06-22T04:44:09;19.80;99.90
26595;DHT22;14238;49.496;8.154;2023-06-22T04:46:35;19.80;99.90
26595;DHT22;14238;49.496;8.154;2023-06-22T04:49:07;19.90;99.90
26595;DHT22;14238;49.496;8.154;2023-06-22T04:51:43;20.00;99.90
26595;DHT22;14238;49.496;8.154;2023-06-22T04:54:09;20.10;99.90
26595;DHT22;14238;49.496;8.154;2023-06-22T04:56:35;20.10;99.90
26595;DHT22;14238;49.496;8.154;2023-06-22T04:59:01;20.20;99.90
26595;DHT22;14238;49.496;8.154;2023-06-22T05:01:28;20.20;99.90
26595;DHT22;14238;49.496;8.154;2023-06-22T05:03:54;20.40;99.90
26595;DHT22;14238;49.496;8.154;2023-06-22T05:06:21;20.40;99.90
26595;DHT22;14238;49.496;8.154;2023-06-22T05:08:51;20.40;99.90
26595;DHT22;14238;49.496;8.154;2023-06-22T05:11:16;20.40;99.90
26595;DHT22;14238;49.496;8.154;2023-06-22T05:13:42;20.50;99.90
26595;DHT22;14238;49.496;8.154;2023-06-22T05:16:07;20.50;99.90
26595;DHT22;14238;49.496;8.154;2023-06-22T05:18:33;20.60;99.90
26595;DHT22;14238;49.496;8.154;2023-06-22T05:21:00;20.70;99.90
26595;DHT22;14238;49.496;8.154;2023-06-22T05:23:26;20.70;99.90
26595;DHT22;14238;49.496;8.154;2023-06-22T05:25:51;20.80;99.90
26595;DHT22;14238;49.496;8.154;2023-06-22T05:28:17;20.80;99.90
26595;DHT22;14238;49.496;8.154;2023-06-22T05:30:48;20.80;99.90
26595;DHT22;14238;49.496;8.154;2023-06-22T05:33:13;20.90;99.90
26595;DHT22;14238;49.496;8.154;2023-06-22T05:35:39;21.00;99.90
26595;DHT22;14238;49.496;8.154;2023-06-22T05:38:04;21.10;99.90
26595;DHT22;14238;49.496;8.154;2023-06-22T05:40:30;21.10;99.90
26595;DHT22;14238;49.496;8.154;2023-06-22T05:42:55;21.10;99.90
26595;DHT22;14238;49.496;8.154;2023-06-22T05:45:21;21.10;99.90
26595;DHT22;14238;49.496;8.154;2023-06-22T05:47:46;21.20;99.90
26595;DHT22;14238;49.496;8.154;2023-06-22T05:50:12;21.30;99.90
26595;DHT22;14238;49.496;8.154;2023-06-22T05:52:37;21.40;99.90
26595;DHT22;14238;49.496;8.154;2023-06-22T05:55:03;21.50;99.90
26595;DHT22;14238;49.496;8.154;2023-06-22T05:57:29;21.50;99.90
26595;DHT22;14238;49.496;8.154;2023-06-22T05:59:54;21.60;99.90
26595;DHT22;14238;49.496;8.154;2023-06-22T06:02:20;21.60;99.90
26595;DHT22;14238;49.496;8.154;2023-06-22T06:04:45;21.70;99.90
26595;DHT22;14238;49.496;8.154;2023-06-22T06:07:11;21.80;99.90
26595;DHT22;14238;49.496;8.154;2023-06-22T06:09:36;21.90;99.90
26595;DHT22;14238;49.496;8.154;2023-06-22T06:12:02;21.90;99.90
26595;DHT22;14238;49.496;8.154;2023-06-22T06:14:28;22.00;99.90
26595;DHT22;14238;49.496;8.154;2023-06-22T06:16:54;22.00;99.90
26595;DHT22;14238;49.496;8.154;2023-06-22T06:19:19;22.10;99.90
26595;DHT22;14238;49.496;8.154;2023-06-22T06:21:45;22.20;99.90
26595;DHT22;14238;49.496;8.154;2023-06-22T06:24:12;22.30;99.90
26595;DHT22;14238;49.496;8.154;2023-06-22T06:26:37;22.30;99.90
26595;DHT22;14238;49.496;8.154;2023-06-22T06:29:03;22.50;99.90
26595;DHT22;14238;49.496;8.154;2023-06-22T06:31:28;22.50;99.90
26595;DHT22;14238;49.496;8.154;2023-06-22T06:33:54;22.60;99.90
26595;DHT22;14238;49.496;8.154;2023-06-22T06:36:20;22.60;99.90
26595;DHT22;14238;49.496;8.154;2023-06-22T06:38:46;22.60;99.90
26595;DHT22;14238;49.496;8.154;2023-06-22T06:41:14;22.60;99.90
26595;DHT22;14238;49.496;8.154;2023-06-22T06:43:40;22.70;99.90
26595;DHT22;14238;49.496;8.154;2023-06-22T06:46:05;22.80;99.90
26595;DHT22;14238;49.496;8.154;2023-06-22T06:48:31;22.80;99.90
26595;DHT22;14238;49.496;8.154;2023-06-22T06:50:56;22.80;99.90
26595;DHT22;14238;49.496;8.154;2023-06-22T06:53:22;22.90;99.90
26595;DHT22;14238;49.496;8.154;2023-06-22T06:55:48;22.90;99.90
26595;DHT22;14238;49.496;8.154;2023-06-22T06:58:13;22.90;99.90
26595;DHT22;14238;49.496;8.154;2023-06-22T07:00:39;23.00;99.90
26595;DHT22;14238;49.496;8.154;2023-06-22T07:03:04;23.00;99.90
26595;DHT22;14238;49.496;8.154;2023-06-22T07:05:30;23.00;99.90
26595;DHT22;14238;49.496;8.154;2023-06-22T07:07:56;23.10;99.90
26595;DHT22;14238;49.496;8.154;2023-06-22T07:10:21;23.20;99.90
26595;DHT22;14238;49.496;8.154;2023-06-22T07:12:47;23.20;99.90
26595;DHT22;14238;49.496;8.154;2023-06-22T07:15:13;23.30;99.90
26595;DHT22;14238;49.496;8.154;2023-06-22T07:17:39;23.20;99.90
26595;DHT22;14238;49.496;8.154;2023-06-22T07:20:07;23.30;99.90
26595;DHT22;14238;49.496;8.154;2023-06-22T07:22:37;23.40;99.90
26595;DHT22;14238;49.496;8.154;2023-06-22T07:25:03;23.50;99.90
26595;DHT22;14238;49.496;8.154;2023-06-22T07:27:36;23.60;99.90
26595;DHT22;14238;49.496;8.154;2023-06-22T07:30:03;23.90;99.90
26595;DHT22;14238;49.496;8.154;2023-06-22T07:32:29;23.90;99.90
26595;DHT22;14238;49.496;8.154;2023-06-22T07:34:55;23.90;99.90
26595;DHT22;14238;49.496;8.154;2023-06-22T07:37:21;24.00;99.90
26595;DHT22;14238;49.496;8.154;2023-06-22T07:39:46;24.10;99.90
26595;DHT22;14238;49.496;8.154;2023-06-22T07:42:12;24.10;99.90
26595;DHT22;14238;49.496;8.154;2023-06-22T07:44:37;24.10;99.90
26595;DHT22;14238;49.496;8.154;2023-06-22T07:47:03;24.00;99.90
26595;DHT22;14238;49.496;8.154;2023-06-22T07:49:29;24.10;99.90
26595;DHT22;14238;49.496;8.154;2023-06-22T07:51:54;24.20;99.90
26595;DHT22;14238;49.496;8.154;2023-06-22T07:54:20;24.30;99.90
26595;DHT22;14238;49.496;8.154;2023-06-22T07:56:46;24.50;99.90
26595;DHT22;14238;49.496;8.154;2023-06-22T07:59:12;24.70;99.90
26595;DHT22;14238;49.496;8.154;2023-06-22T08:01:37;24.80;99.90
26595;DHT22;14238;49.496;8.154;2023-06-22T08:04:03;24.90;99.90
26595;DHT22;14238;49.496;8.154;2023-06-22T08:06:30;25.00;99.90
26595;DHT22;14238;49.496;8.154;2023-06-22T08:08:56;25.00;99.90
26595;DHT22;14238;49.496;8.154;2023-06-22T08:11:24;25.20;99.90
26595;DHT22;14238;49.496;8.154;2023-06-22T08:13:51;25.30;99.90
26595;DHT22;14238;49.496;8.154;2023-06-22T08:16:16;25.70;99.90
26595;DHT22;14238;49.496;8.154;2023-06-22T08:18:42;25.80;99.90
26595;DHT22;14238;49.496;8.154;2023-06-22T08:21:08;25.80;99.90
26595;DHT22;14238;49.496;8.154;2023-06-22T08:23:33;26.00;99.90
26595;DHT22;14238;49.496;8.154;2023-06-22T08:25:59;26.10;99.90
26595;DHT22;14238;49.496;8.154;2023-06-22T08:28:24;26.10;99.90
26595;DHT22;14238;49.496;8.154;2023-06-22T08:30:50;26.30;99.90
26595;DHT22;14238;49.496;8.154;2023-06-22T08:33:15;26.30;99.90
26595;DHT22;14238;49.496;8.154;2023-06-22T08:35:41;26.70;99.90
26595;DHT22;14238;49.496;8.154;2023-06-22T08:38:07;26.80;99.90
26595;DHT22;14238;49.496;8.154;2023-06-22T08:40:34;26.40;99.90
26595;DHT22;14238;49.496;8.154;2023-06-22T08:42:59;26.40;99.90
26595;DHT22;14238;49.496;8.154;2023-06-22T08:45:25;26.60;99.90
26595;DHT22;14238;49.496;8.154;2023-06-22T08:47:50;26.90;99.90
26595;DHT22;14238;49.496;8.154;2023-06-22T08:50:16;26.70;99.90
26595;DHT22;14238;49.496;8.154;2023-06-22T08:52:41;27.00;99.90
26595;DHT22;14238;49.496;8.154;2023-06-22T08:55:07;27.50;99.90
26595;DHT22;14238;49.496;8.154;2023-06-22T08:57:34;27.50;99.90
26595;DHT22;14238;49.496;8.154;2023-06-22T08:59:59;27.30;99.90
26595;DHT22;14238;49.496;8.154;2023-06-22T09:02:28;27.50;99.90
26595;DHT22;14238;49.496;8.154;2023-06-22T09:04:59;27.50;99.90
26595;DHT22;14238;49.496;8.154;2023-06-22T09:07:25;27.40;99.90
26595;DHT22;14238;49.496;8.154;2023-06-22T09:09:51;27.30;99.90
26595;DHT22;14238;49.496;8.154;2023-06-22T09:12:18;27.10;99.90
26595;DHT22;14238;49.496;8.154;2023-06-22T09:14:45;27.30;99.90
26595;DHT22;14238;49.496;8.154;2023-06-22T09:17:12;27.50;99.90
26595;DHT22;14238;49.496;8.154;2023-06-22T09:19:38;27.50;99.90
26595;DHT22;14238;49.496;8.154;2023-06-22T09:22:03;28.10;99.90
26595;DHT22;14238;49.496;8.154;2023-06-22T09:24:31;28.40;99.90
26595;DHT22;14238;49.496;8.154;2023-06-22T09:26:56;28.30;99.90
26595;DHT22;14238;49.496;8.154;2023-06-22T09:29:22;28.40;99.90
26595;DHT22;14238;49.496;8.154;2023-06-22T09:31:47;28.60;99.90
26595;DHT22;14238;49.496;8.154;2023-06-22T09:34:13;28.60;99.90
26595;DHT22;14238;49.496;8.154;2023-06-22T09:36:40;28.50;99.90
26595;DHT22;14238;49.496;8.154;2023-06-22T09:39:06;28.60;99.90
26595;DHT22;14238;49.496;8.154;2023-06-22T09:41:32;28.60;99.90
26595;DHT22;14238;49.496;8.154;2023-06-22T09:43:57;28.80;99.90
26595;DHT22;14238;49.496;8.154;2023-06-22T09:46:24;28.80;99.90
26595;DHT22;14238;49.496;8.154;2023-06-22T09:48:54;28.90;99.90
26595;DHT22;14238;49.496;8.154;2023-06-22T09:51:20;29.10;99.90
26595;DHT22;14238;49.496;8.154;2023-06-22T09:53:47;29.30;99.90
26595;DHT22;14238;49.496;8.154;2023-06-22T09:56:13;29.50;99.90
26595;DHT22;14238;49.496;8.154;2023-06-22T09:58:44;29.90;99.90
26595;DHT22;14238;49.496;8.154;2023-06-22T10:01:10;30.10;99.90
26595;DHT22;14238;49.496;8.154;2023-06-22T10:03:36;30.20;99.90
26595;DHT22;14238;49.496;8.154;2023-06-22T10:06:02;30.20;99.90
26595;DHT22;14238;49.496;8.154;2023-06-22T10:08:27;30.20;99.90
26595;DHT22;14238;49.496;8.154;2023-06-22T10:10:53;30.20;99.90
26595;DHT22;14238;49.496;8.154;2023-06-22T10:13:19;30.30;99.90
26595;DHT22;14238;49.496;8.154;2023-06-22T10:15:44;30.30;99.90
26595;DHT22;14238;49.496;8.154;2023-06-22T10:18:16;30.70;99.90
26595;DHT22;14238;49.496;8.154;2023-06-22T10:20:42;30.20;99.90
26595;DHT22;14238;49.496;8.154;2023-06-22T10:23:08;30.10;99.90
26595;DHT22;14238;49.496;8.154;2023-06-22T10:25:33;30.60;99.90
26595;DHT22;14238;49.496;8.154;2023-06-22T10:27:59;30.80;99.90
26595;DHT22;14238;49.496;8.154;2023-06-22T10:30:24;30.90;99.90
26595;DHT22;14238;49.496;8.154;2023-06-22T10:32:50;31.00;99.90
26595;DHT22;14238;49.496;8.154;2023-06-22T10:35:16;31.00;99.90
26595;DHT22;14238;49.496;8.154;2023-06-22T10:37:43;31.00;99.90
26595;DHT22;14238;49.496;8.154;2023-06-22T10:40:09;31.20;99.90
26595;DHT22;14238;49.496;8.154;2023-06-22T10:42:35;31.50;99.90
26595;DHT22;14238;49.496;8.154;2023-06-22T10:45:00;31.90;99.90
26595;DHT22;14238;49.496;8.154;2023-06-22T10:47:26;31.70;99.90
26595;DHT22;14238;49.496;8.154;2023-06-22T10:49:51;31.90;99.90
26595;DHT22;14238;49.496;8.154;2023-06-22T10:52:17;32.20;99.90
26595;DHT22;14238;49.496;8.154;2023-06-22T10:54:44;32.60;99.90
26595;DHT22;14238;49.496;8.154;2023-06-22T10:57:09;32.70;99.90
26595;DHT22;14238;49.496;8.154;2023-06-22T10:59:35;32.20;99.90
26595;DHT22;14238;49.496;8.154;2023-06-22T11:02:00;31.50;99.90
26595;DHT22;14238;49.496;8.154;2023-06-22T11:04:26;31.40;99.90
26595;DHT22;14238;49.496;8.154;2023-06-22T11:06:51;31.30;99.90
26595;DHT22;14238;49.496;8.154;2023-06-22T11:09:17;31.50;99.90
26595;DHT22;14238;49.496;8.154;2023-06-22T11:11:51;31.50;99.90
26595;DHT22;14238;49.496;8.154;2023-06-22T11:14:19;31.60;99.90
26595;DHT22;14238;49.496;8.154;2023-06-22T11:16:44;31.80;99.90
26595;DHT22;14238;49.496;8.154;2023-06-22T11:19:11;31.80;99.90
26595;DHT22;14238;49.496;8.154;2023-06-22T11:21:37;31.70;99.90
26595;DHT22;14238;49.496;8.154;2023-06-22T11:24:03;31.50;99.90
26595;DHT22;14238;49.496;8.154;2023-06-22T11:26:28;31.40;99.90
26595;DHT22;14238;49.496;8.154;2023-06-22T11:28:54;31.80;99.90
26595;DHT22;14238;49.496;8.154;2023-06-22T11:31:20;32.10;99.90
26595;DHT22;14238;49.496;8.154;2023-06-22T11:33:45;32.50;99.90
26595;DHT22;14238;49.496;8.154;2023-06-22T11:36:12;32.90;99.90
26595;DHT22;14238;49.496;8.154;2023-06-22T11:38:38;33.00;99.90
26595;DHT22;14238;49.496;8.154;2023-06-22T11:41:05;33.10;99.80
26595;DHT22;14238;49.496;8.154;2023-06-22T11:43:31;32.20;99.90
26595;DHT22;14238;49.496;8.154;2023-06-22T11:45:57;31.80;99.90
26595;DHT22;14238;49.496;8.154;2023-06-22T11:48:26;31.90;99.90
26595;DHT22;14238;49.496;8.154;2023-06-22T11:50:51;32.10;99.90
26595;DHT22;14238;49.496;8.154;2023-06-22T11:53:17;32.30;99.90
26595;DHT22;14238;49.496;8.154;2023-06-22T11:55:43;32.00;99.90
26595;DHT22;14238;49.496;8.154;2023-06-22T11:58:09;32.20;99.90
26595;DHT22;14238;49.496;8.154;2023-06-22T12:00:35;32.20;99.90
26595;DHT22;14238;49.496;8.154;2023-06-22T12:03:00;31.90;99.90
26595;DHT22;14238;49.496;8.154;2023-06-22T12:05:26;31.70;99.90
26595;DHT22;14238;49.496;8.154;2023-06-22T12:07:55;31.80;99.90
26595;DHT22;14238;49.496;8.154;2023-06-22T12:10:22;31.70;99.90
26595;DHT22;14238;49.496;8.154;2023-06-22T12:12:48;31.60;99.90
26595;DHT22;14238;49.496;8.154;2023-06-22T12:15:13;31.60;99.90
26595;DHT22;14238;49.496;8.154;2023-06-22T12:17:40;31.70;99.90
26595;DHT22;14238;49.496;8.154;2023-06-22T12:20:06;32.10;99.90
26595;DHT22;14238;49.496;8.154;2023-06-22T12:22:35;32.50;99.90
26595;DHT22;14238;49.496;8.154;2023-06-22T12:25:03;32.60;99.90
26595;DHT22;14238;49.496;8.154;2023-06-22T12:27:29;32.80;99.90
26595;DHT22;14238;49.496;8.154;2023-06-22T12:29:56;33.30;99.90
26595;DHT22;14238;49.496;8.154;2023-06-22T12:32:21;33.40;99.90
26595;DHT22;14238;49.496;8.154;2023-06-22T12:34:47;33.30;99.90
26595;DHT22;14238;49.496;8.154;2023-06-22T12:37:12;32.90;99.20
26595;DHT22;14238;49.496;8.154;2023-06-22T12:39:40;32.30;99.90
26595;DHT22;14238;49.496;8.154;2023-06-22T12:42:06;32.30;99.90
26595;DHT22;14238;49.496;8.154;2023-06-22T12:44:34;32.10;99.90
26595;DHT22;14238;49.496;8.154;2023-06-22T12:47:00;32.40;99.90
26595;DHT22;14238;49.496;8.154;2023-06-22T12:49:25;32.90;99.90
26595;DHT22;14238;49.496;8.154;2023-06-22T12:51:50;33.00;99.70
26595;DHT22;14238;49.496;8.154;2023-06-22T12:54:16;32.80;99.80
26595;DHT22;14238;49.496;8.154;2023-06-22T12:56:42;32.50;99.90
26595;DHT22;14238;49.496;8.154;2023-06-22T12:59:10;32.50;99.90
26595;DHT22;14238;49.496;8.154;2023-06-22T13:01:36;32.60;99.90
26595;DHT22;14238;49.496;8.154;2023-06-22T13:04:02;32.50;99.90
26595;DHT22;14238;49.496;8.154;2023-06-22T13:06:28;32.50;99.90
26595;DHT22;14238;49.496;8.154;2023-06-22T13:08:53;32.80;99.90
26595;DHT22;14238;49.496;8.154;2023-06-22T13:11:19;32.80;99.90
26595;DHT22;14238;49.496;8.154;2023-06-22T13:13:45;33.10;99.90
26595;DHT22;14238;49.496;8.154;2023-06-22T13:16:11;33.20;99.90
26595;DHT22;14238;49.496;8.154;2023-06-22T13:18:36;33.30;99.90
26595;DHT22;14238;49.496;8.154;2023-06-22T13:21:03;33.50;99.90
26595;DHT22;14238;49.496;8.154;2023-06-22T13:23:28;33.40;99.10
26595;DHT22;14238;49.496;8.154;2023-06-22T13:25:54;33.40;99.90
26595;DHT22;14238;49.496;8.154;2023-06-22T13:28:20;33.70;99.80
26595;DHT22;14238;49.496;8.154;2023-06-22T13:30:46;33.40;99.10
26595;DHT22;14238;49.496;8.154;2023-06-22T13:33:13;33.60;99.30
26595;DHT22;14238;49.496;8.154;2023-06-22T13:35:38;33.50;99.70
26595;DHT22;14238;49.496;8.154;2023-06-22T13:38:04;33.40;98.80
26595;DHT22;14238;49.496;8.154;2023-06-22T13:40:29;33.10;99.10
26595;DHT22;14238;49.496;8.154;2023-06-22T13:42:56;32.80;98.80
26595;DHT22;14238;49.496;8.154;2023-06-22T13:45:21;32.60;99.50
26595;DHT22;14238;49.496;8.154;2023-06-22T13:47:47;32.80;99.80
26595;DHT22;14238;49.496;8.154;2023-06-22T13:50:13;33.10;99.70
26595;DHT22;14238;49.496;8.154;2023-06-22T13:52:39;33.50;99.20
26595;DHT22;14238;49.496;8.154;2023-06-22T13:55:05;33.80;98.30
26595;DHT22;14238;49.496;8.154;2023-06-22T13:57:32;33.90;97.70
26595;DHT22;14238;49.496;8.154;2023-06-22T13:59:58;33.80;98.10
26595;DHT22;14238;49.496;8.154;2023-06-22T14:02:23;33.50;98.20
26595;DHT22;14238;49.496;8.154;2023-06-22T14:04:49;33.50;98.00
26595;DHT22;14238;49.496;8.154;2023-06-22T14:07:14;32.70;97.70
26595;DHT22;14238;49.496;8.154;2023-06-22T14:09:40;32.20;98.30
26595;DHT22;14238;49.496;8.154;2023-06-22T14:12:06;31.90;98.30
26595;DHT22;14238;49.496;8.154;2023-06-22T14:14:32;31.40;98.80
26595;DHT22;14238;49.496;8.154;2023-06-22T14:16:59;31.20;99.00
26595;DHT22;14238;49.496;8.154;2023-06-22T14:19:24;31.10;99.70
26595;DHT22;14238;49.496;8.154;2023-06-22T14:21:50;31.00;99.90
26595;DHT22;14238;49.496;8.154;2023-06-22T14:24:15;31.10;99.90
26595;DHT22;14238;49.496;8.154;2023-06-22T14:26:41;31.10;99.90
26595;DHT22;14238;49.496;8.154;2023-06-22T14:29:06;31.70;99.90
26595;DHT22;14238;49.496;8.154;2023-06-22T14:31:32;32.10;99.90
26595;DHT22;14238;49.496;8.154;2023-06-22T14:33:58;32.20;99.90
26595;DHT22;14238;49.496;8.154;2023-06-22T14:36:23;32.20;99.90
26595;DHT22;14238;49.496;8.154;2023-06-22T14:38:49;32.30;99.90
26595;DHT22;14238;49.496;8.154;2023-06-22T14:41:15;32.70;99.90
26595;DHT22;14238;49.496;8.154;2023-06-22T14:43:44;32.50;99.90
26595;DHT22;14238;49.496;8.154;2023-06-22T14:46:11;32.50;99.90
26595;DHT22;14238;49.496;8.154;2023-06-22T14:48:36;32.40;99.90
26595;DHT22;14238;49.496;8.154;2023-06-22T14:51:02;32.30;99.90
26595;DHT22;14238;49.496;8.154;2023-06-22T14:53:27;32.00;99.90
26595;DHT22;14238;49.496;8.154;2023-06-22T14:55:53;32.10;99.90
26595;DHT22;14238;49.496;8.154;2023-06-22T14:58:20;32.00;99.90
26595;DHT22;14238;49.496;8.154;2023-06-22T15:00:45;32.10;99.90
26595;DHT22;14238;49.496;8.154;2023-06-22T15:03:11;32.10;99.90
26595;DHT22;14238;49.496;8.154;2023-06-22T15:05:42;32.10;99.90
26595;DHT22;14238;49.496;8.154;2023-06-22T15:08:08;32.20;99.90
26595;DHT22;14238;49.496;8.154;2023-06-22T15:10:34;32.00;99.90
26595;DHT22;14238;49.496;8.154;2023-06-22T15:12:59;31.50;99.90
26595;DHT22;14238;49.496;8.154;2023-06-22T15:15:25;31.10;99.90
26595;DHT22;14238;49.496;8.154;2023-06-22T15:17:50;30.80;99.90
26595;DHT22;14238;49.496;8.154;2023-06-22T15:20:16;30.50;99.90
26595;DHT22;14238;49.496;8.154;2023-06-22T15:22:41;30.20;99.90
26595;DHT22;14238;49.496;8.154;2023-06-22T15:25:07;30.10;99.90
26595;DHT22;14238;49.496;8.154;2023-06-22T15:27:33;29.90;99.90
26595;DHT22;14238;49.496;8.154;2023-06-22T15:29:58;29.80;99.90